sensor_id;sensor_type;location;lat;lon;timestamp;P1;durP1;ratioP1;P2;durP2;ratioP2
39022;SDS011;25908;51.984;5.928;2023-06-14T00:00:30;3.35;;;2.10;;
39022;SDS011;25908;51.984;5.928;2023-06-14T00:02:56;8.38;;;2.60;;
39022;SDS011;25908;51.984;5.928;2023-06-14T00:05:23;4.38;;;2.30;;
39022;SDS011;25908;51.984;5.928;2023-06-14T00:07:49;10.70;;;2.70;;
39022;SDS011;25908;51.984;5.928;2023-06-14T00:10:18;4.38;;;2.47;;
39022;SDS011;25908;51.984;5.928;2023-06-14T00:12:44;4.05;;;2.00;;
39022;SDS011;25908;51.984;5.928;2023-06-14T00:15:10;4.10;;;2.15;;
39022;SDS011;25908;51.984;5.928;2023-06-14T00:17:35;7.45;;;2.45;;
39022;SDS011;25908;51.984;5.928;2023-06-14T00:20:02;5.72;;;2.50;;
39022;SDS011;25908;51.984;5.928;2023-06-14T00:22:32;3.88;;;2.53;;
39022;SDS011;25908;51.984;5.928;2023-06-14T00:24:58;4.78;;;2.78;;
39022;SDS011;25908;51.984;5.928;2023-06-14T00:27:23;4.35;;;2.20;;
39022;SDS011;25908;51.984;5.928;2023-06-14T00:29:50;4.78;;;2.35;;
39022;SDS011;25908;51.984;5.928;2023-06-14T00:32:15;7.72;;;2.33;;
39022;SDS011;25908;51.984;5.928;2023-06-14T00:34:41;5.03;;;2.55;;
39022;SDS011;25908;51.984;5.928;2023-06-14T00:37:06;4.65;;;2.47;;
39022;SDS011;25908;51.984;5.928;2023-06-14T00:39:32;4.55;;;2.38;;
39022;SDS011;25908;51.984;5.928;2023-06-14T00:41:57;6.10;;;2.20;;
39022;SDS011;25908;51.984;5.928;2023-06-14T00:44:24;3.65;;;2.10;;
39022;SDS011;25908;51.984;5.928;2023-06-14T00:46:50;5.28;;;2.55;;
39022;SDS011;25908;51.984;5.928;2023-06-14T00:49:16;3.63;;;2.33;;
39022;SDS011;25908;51.984;5.928;2023-06-14T00:51:43;4.88;;;2.20;;
39022;SDS011;25908;51.984;5.928;2023-06-14T00:54:09;5.43;;;1.90;;
39022;SDS011;25908;51.984;5.928;2023-06-14T00:56:36;3.92;;;2.17;;
39022;SDS011;25908;51.984;5.928;2023-06-14T00:59:02;3.92;;;2.20;;
39022;SDS011;25908;51.984;5.928;2023-06-14T01:01:28;4.75;;;2.15;;
39022;SDS011;25908;51.984;5.928;2023-06-14T01:03:57;5.47;;;1.75;;
39022;SDS011;25908;51.984;5.928;2023-06-14T01:06:27;4.80;;;2.38;;
39022;SDS011;25908;51.984;5.928;2023-06-14T01:09:21;3.83;;;2.20;;
39022;SDS011;25908;51.984;5.928;2023-06-14T01:12:17;3.50;;;2.10;;
39022;SDS011;25908;51.984;5.928;2023-06-14T01:14:52;3.42;;;2.03;;
39022;SDS011;25908;51.984;5.928;2023-06-14T01:17:20;6.45;;;2.05;;
39022;SDS011;25908;51.984;5.928;2023-06-14T01:19:48;5.15;;;2.45;;
39022;SDS011;25908;51.984;5.928;2023-06-14T01:22:14;4.53;;;2.10;;
39022;SDS011;25908;51.984;5.928;2023-06-14T01:24:40;3.50;;;1.80;;
39022;SDS011;25908;51.984;5.928;2023-06-14T01:27:09;3.65;;;1.83;;
39022;SDS011;25908;51.984;5.928;2023-06-14T01:29:37;8.23;;;2.22;;
39022;SDS011;25908;51.984;5.928;2023-06-14T01:32:03;4.43;;;2.40;;
39022;SDS011;25908;51.984;5.928;2023-06-14T01:34:30;4.20;;;2.03;;
39022;SDS011;25908;51.984;5.928;2023-06-14T01:36:56;5.97;;;2.05;;
39022;SDS011;25908;51.984;5.928;2023-06-14T01:39:23;6.60;;;2.10;;
39022;SDS011;25908;51.984;5.928;2023-06-14T01:41:49;3.33;;;1.95;;
39022;SDS011;25908;51.984;5.928;2023-06-14T01:44:16;4.30;;;2.25;;
39022;SDS011;25908;51.984;5.928;2023-06-14T01:46:43;4.38;;;2.25;;
39022;SDS011;25908;51.984;5.928;2023-06-14T01:49:10;2.80;;;1.77;;
39022;SDS011;25908;51.984;5.928;2023-06-14T01:51:36;5.28;;;1.92;;
39022;SDS011;25908;51.984;5.928;2023-06-14T01:54:02;3.85;;;2.03;;
39022;SDS011;25908;51.984;5.928;2023-06-14T01:56:27;3.55;;;1.95;;
39022;SDS011;25908;51.984;5.928;2023-06-14T01:58:53;6.13;;;1.77;;
39022;SDS011;25908;51.984;5.928;2023-06-14T02:01:19;3.65;;;1.70;;
39022;SDS011;25908;51.984;5.928;2023-06-14T02:03:46;4.53;;;2.10;;
39022;SDS011;25908;51.984;5.928;2023-06-14T02:06:12;4.20;;;2.25;;
39022;SDS011;25908;51.984;5.928;2023-06-14T02:08:38;5.68;;;2.08;;
39022;SDS011;25908;51.984;5.928;2023-06-14T02:11:05;4.72;;;1.90;;
39022;SDS011;25908;51.984;5.928;2023-06-14T02:13:30;3.40;;;1.92;;
39022;SDS011;25908;51.984;5.928;2023-06-14T02:15:56;3.45;;;1.88;;
39022;SDS011;25908;51.984;5.928;2023-06-14T02:18:22;5.47;;;2.20;;
39022;SDS011;25908;51.984;5.928;2023-06-14T02:20:48;4.68;;;2.10;;
39022;SDS011;25908;51.984;5.928;2023-06-14T02:23:13;3.88;;;2.08;;
39022;SDS011;25908;51.984;5.928;2023-06-14T02:25:39;5.75;;;2.08;;
39022;SDS011;25908;51.984;5.928;2023-06-14T02:28:05;4.20;;;2.00;;
39022;SDS011;25908;51.984;5.928;2023-06-14T02:30:31;3.33;;;1.88;;
39022;SDS011;25908;51.984;5.928;2023-06-14T02:32:56;4.55;;;1.90;;
39022;SDS011;25908;51.984;5.928;2023-06-14T02:35:22;2.92;;;1.65;;
39022;SDS011;25908;51.984;5.928;2023-06-14T02:37:51;3.30;;;1.83;;
39022;SDS011;25908;51.984;5.928;2023-06-14T02:40:17;3.72;;;2.13;;
39022;SDS011;25908;51.984;5.928;2023-06-14T02:42:43;4.30;;;1.90;;
39022;SDS011;25908;51.984;5.928;2023-06-14T02:45:09;5.78;;;2.20;;
39022;SDS011;25908;51.984;5.928;2023-06-14T02:47:34;6.30;;;2.08;;
39022;SDS011;25908;51.984;5.928;2023-06-14T02:50:00;3.58;;;1.85;;
39022;SDS011;25908;51.984;5.928;2023-06-14T02:52:26;5.00;;;2.05;;
39022;SDS011;25908;51.984;5.928;2023-06-14T02:54:51;4.05;;;2.10;;
39022;SDS011;25908;51.984;5.928;2023-06-14T02:57:17;3.75;;;2.10;;
39022;SDS011;25908;51.984;5.928;2023-06-14T02:59:42;4.00;;;2.40;;
39022;SDS011;25908;51.984;5.928;2023-06-14T03:02:08;4.60;;;2.30;;
39022;SDS011;25908;51.984;5.928;2023-06-14T03:04:33;4.28;;;1.80;;
39022;SDS011;25908;51.984;5.928;2023-06-14T03:07:02;4.13;;;1.85;;
39022;SDS011;25908;51.984;5.928;2023-06-14T03:09:33;7.03;;;2.38;;
39022;SDS011;25908;51.984;5.928;2023-06-14T03:12:00;5.78;;;2.00;;
39022;SDS011;25908;51.984;5.928;2023-06-14T03:14:26;3.83;;;2.00;;
39022;SDS011;25908;51.984;5.928;2023-06-14T03:16:51;5.78;;;2.00;;
39022;SDS011;25908;51.984;5.928;2023-06-14T03:19:21;3.20;;;1.80;;
39022;SDS011;25908;51.984;5.928;2023-06-14T03:21:48;5.82;;;1.85;;
39022;SDS011;25908;51.984;5.928;2023-06-14T03:24:14;3.97;;;2.15;;
39022;SDS011;25908;51.984;5.928;2023-06-14T03:26:41;5.55;;;2.42;;
39022;SDS011;25908;51.984;5.928;2023-06-14T03:29:07;3.50;;;1.65;;
39022;SDS011;25908;51.984;5.928;2023-06-14T03:31:33;3.75;;;2.00;;
39022;SDS011;25908;51.984;5.928;2023-06-14T03:34:00;3.03;;;1.65;;
39022;SDS011;25908;51.984;5.928;2023-06-14T03:36:26;4.47;;;1.85;;
39022;SDS011;25908;51.984;5.928;2023-06-14T03:38:52;5.47;;;2.25;;
39022;SDS011;25908;51.984;5.928;2023-06-14T03:41:18;3.83;;;2.13;;
39022;SDS011;25908;51.984;5.928;2023-06-14T03:43:44;5.43;;;1.73;;
39022;SDS011;25908;51.984;5.928;2023-06-14T03:46:09;3.30;;;1.90;;
39022;SDS011;25908;51.984;5.928;2023-06-14T03:48:35;3.15;;;1.75;;
39022;SDS011;25908;51.984;5.928;2023-06-14T03:51:00;3.53;;;1.95;;
39022;SDS011;25908;51.984;5.928;2023-06-14T03:53:27;5.05;;;1.60;;
39022;SDS011;25908;51.984;5.928;2023-06-14T03:55:54;4.68;;;2.05;;
39022;SDS011;25908;51.984;5.928;2023-06-14T03:58:20;4.50;;;1.98;;
39022;SDS011;25908;51.984;5.928;2023-06-14T04:00:46;5.30;;;2.10;;
39022;SDS011;25908;51.984;5.928;2023-06-14T04:03:12;4.85;;;2.38;;
39022;SDS011;25908;51.984;5.928;2023-06-14T04:05:38;5.22;;;2.08;;
39022;SDS011;25908;51.984;5.928;2023-06-14T04:08:07;3.10;;;1.80;;
39022;SDS011;25908;51.984;5.928;2023-06-14T04:10:34;5.80;;;2.60;;
39022;SDS011;25908;51.984;5.928;2023-06-14T04:12:59;3.80;;;1.95;;
39022;SDS011;25908;51.984;5.928;2023-06-14T04:15:25;5.75;;;2.20;;
39022;SDS011;25908;51.984;5.928;2023-06-14T04:17:53;6.10;;;1.90;;
39022;SDS011;25908;51.984;5.928;2023-06-14T04:20:22;3.88;;;1.90;;
39022;SDS011;25908;51.984;5.928;2023-06-14T04:22:49;4.25;;;1.80;;
39022;SDS011;25908;51.984;5.928;2023-06-14T04:25:14;6.97;;;2.10;;
39022;SDS011;25908;51.984;5.928;2023-06-14T04:27:40;4.55;;;2.03;;
39022;SDS011;25908;51.984;5.928;2023-06-14T04:30:07;4.57;;;1.77;;
39022;SDS011;25908;51.984;5.928;2023-06-14T04:32:32;5.85;;;2.35;;
39022;SDS011;25908;51.984;5.928;2023-06-14T04:35:05;7.65;;;1.80;;
39022;SDS011;25908;51.984;5.928;2023-06-14T04:37:32;9.75;;;3.63;;
39022;SDS011;25908;51.984;5.928;2023-06-14T04:39:58;4.72;;;2.10;;
39022;SDS011;25908;51.984;5.928;2023-06-14T04:42:23;4.20;;;2.03;;
39022;SDS011;25908;51.984;5.928;2023-06-14T04:44:56;4.57;;;1.85;;
39022;SDS011;25908;51.984;5.928;2023-06-14T04:47:22;3.40;;;2.03;;
39022;SDS011;25908;51.984;5.928;2023-06-14T04:49:49;3.85;;;1.92;;
39022;SDS011;25908;51.984;5.928;2023-06-14T04:52:18;6.55;;;1.83;;
39022;SDS011;25908;51.984;5.928;2023-06-14T04:54:45;3.08;;;1.70;;
39022;SDS011;25908;51.984;5.928;2023-06-14T04:57:11;4.20;;;1.92;;
39022;SDS011;25908;51.984;5.928;2023-06-14T04:59:38;5.35;;;2.25;;
39022;SDS011;25908;51.984;5.928;2023-06-14T05:02:04;4.47;;;2.10;;
39022;SDS011;25908;51.984;5.928;2023-06-14T05:04:31;5.15;;;2.42;;
39022;SDS011;25908;51.984;5.928;2023-06-14T05:06:57;4.20;;;2.00;;
39022;SDS011;25908;51.984;5.928;2023-06-14T05:09:23;4.90;;;1.90;;
39022;SDS011;25908;51.984;5.928;2023-06-14T05:11:49;3.80;;;1.80;;
39022;SDS011;25908;51.984;5.928;2023-06-14T05:14:15;3.78;;;1.92;;
39022;SDS011;25908;51.984;5.928;2023-06-14T05:16:41;6.93;;;2.00;;
39022;SDS011;25908;51.984;5.928;2023-06-14T05:19:07;3.17;;;2.10;;
39022;SDS011;25908;51.984;5.928;2023-06-14T05:21:33;4.40;;;2.40;;
39022;SDS011;25908;51.984;5.928;2023-06-14T05:23:59;5.50;;;2.10;;
39022;SDS011;25908;51.984;5.928;2023-06-14T05:26:25;2.70;;;1.80;;
39022;SDS011;25908;51.984;5.928;2023-06-14T05:28:53;3.47;;;2.08;;
39022;SDS011;25908;51.984;5.928;2023-06-14T05:31:21;3.05;;;1.77;;
39022;SDS011;25908;51.984;5.928;2023-06-14T05:33:51;7.22;;;2.03;;
39022;SDS011;25908;51.984;5.928;2023-06-14T05:36:16;4.63;;;2.28;;
39022;SDS011;25908;51.984;5.928;2023-06-14T05:38:43;5.03;;;2.13;;
39022;SDS011;25908;51.984;5.928;2023-06-14T05:41:08;3.28;;;1.63;;
39022;SDS011;25908;51.984;5.928;2023-06-14T05:43:34;3.75;;;2.00;;
39022;SDS011;25908;51.984;5.928;2023-06-14T05:45:59;3.97;;;2.03;;
39022;SDS011;25908;51.984;5.928;2023-06-14T05:48:25;3.15;;;1.80;;
39022;SDS011;25908;51.984;5.928;2023-06-14T05:50:50;4.85;;;1.85;;
39022;SDS011;25908;51.984;5.928;2023-06-14T05:53:16;2.80;;;1.80;;
39022;SDS011;25908;51.984;5.928;2023-06-14T05:55:42;4.28;;;1.98;;
39022;SDS011;25908;51.984;5.928;2023-06-14T05:58:07;2.88;;;1.80;;
39022;SDS011;25908;51.984;5.928;2023-06-14T06:00:33;3.95;;;1.70;;
39022;SDS011;25908;51.984;5.928;2023-06-14T06:02:58;3.30;;;1.55;;
39022;SDS011;25908;51.984;5.928;2023-06-14T06:05:24;2.42;;;1.73;;
39022;SDS011;25908;51.984;5.928;2023-06-14T06:07:49;4.45;;;1.75;;
39022;SDS011;25908;51.984;5.928;2023-06-14T06:10:15;3.30;;;2.00;;
39022;SDS011;25908;51.984;5.928;2023-06-14T06:12:41;4.45;;;1.80;;
39022;SDS011;25908;51.984;5.928;2023-06-14T06:15:07;4.30;;;1.85;;
39022;SDS011;25908;51.984;5.928;2023-06-14T06:17:36;4.57;;;2.10;;
39022;SDS011;25908;51.984;5.928;2023-06-14T06:20:02;6.18;;;2.22;;
39022;SDS011;25908;51.984;5.928;2023-06-14T06:22:30;3.67;;;2.15;;
39022;SDS011;25908;51.984;5.928;2023-06-14T06:24:56;4.97;;;2.17;;
39022;SDS011;25908;51.984;5.928;2023-06-14T06:27:21;4.38;;;1.98;;
39022;SDS011;25908;51.984;5.928;2023-06-14T06:29:47;6.32;;;2.20;;
39022;SDS011;25908;51.984;5.928;2023-06-14T06:32:13;4.40;;;2.30;;
39022;SDS011;25908;51.984;5.928;2023-06-14T06:34:39;2.78;;;1.63;;
39022;SDS011;25908;51.984;5.928;2023-06-14T06:37:05;7.35;;;2.28;;
39022;SDS011;25908;51.984;5.928;2023-06-14T06:39:31;3.22;;;2.00;;
39022;SDS011;25908;51.984;5.928;2023-06-14T06:41:56;3.47;;;1.92;;
39022;SDS011;25908;51.984;5.928;2023-06-14T06:44:22;5.85;;;2.13;;
39022;SDS011;25908;51.984;5.928;2023-06-14T06:46:48;4.22;;;2.08;;
39022;SDS011;25908;51.984;5.928;2023-06-14T06:49:13;4.93;;;2.05;;
39022;SDS011;25908;51.984;5.928;2023-06-14T06:51:41;5.80;;;2.13;;
39022;SDS011;25908;51.984;5.928;2023-06-14T06:54:08;3.42;;;2.20;;
39022;SDS011;25908;51.984;5.928;2023-06-14T06:56:34;6.10;;;1.80;;
39022;SDS011;25908;51.984;5.928;2023-06-14T06:59:00;3.83;;;1.80;;
39022;SDS011;25908;51.984;5.928;2023-06-14T07:01:25;3.33;;;1.45;;
39022;SDS011;25908;51.984;5.928;2023-06-14T07:03:53;7.13;;;1.92;;
39022;SDS011;25908;51.984;5.928;2023-06-14T07:06:22;3.63;;;1.70;;
39022;SDS011;25908;51.984;5.928;2023-06-14T07:08:52;3.13;;;1.83;;
39022;SDS011;25908;51.984;5.928;2023-06-14T07:11:17;4.20;;;2.25;;
39022;SDS011;25908;51.984;5.928;2023-06-14T07:13:43;2.58;;;1.60;;
39022;SDS011;25908;51.984;5.928;2023-06-14T07:16:08;3.95;;;1.77;;
39022;SDS011;25908;51.984;5.928;2023-06-14T07:18:34;3.67;;;1.50;;
39022;SDS011;25908;51.984;5.928;2023-06-14T07:21:01;2.78;;;1.70;;
39022;SDS011;25908;51.984;5.928;2023-06-14T07:23:28;3.63;;;1.73;;
39022;SDS011;25908;51.984;5.928;2023-06-14T07:25:53;2.38;;;1.25;;
39022;SDS011;25908;51.984;5.928;2023-06-14T07:28:19;3.88;;;1.63;;
39022;SDS011;25908;51.984;5.928;2023-06-14T07:30:45;2.92;;;1.60;;
39022;SDS011;25908;51.984;5.928;2023-06-14T07:33:10;3.33;;;1.55;;
39022;SDS011;25908;51.984;5.928;2023-06-14T07:35:37;4.30;;;1.35;;
39022;SDS011;25908;51.984;5.928;2023-06-14T07:38:02;4.63;;;1.42;;
39022;SDS011;25908;51.984;5.928;2023-06-14T07:40:28;2.88;;;1.67;;
39022;SDS011;25908;51.984;5.928;2023-06-14T07:42:54;2.78;;;1.35;;
39022;SDS011;25908;51.984;5.928;2023-06-14T07:45:20;2.25;;;1.30;;
39022;SDS011;25908;51.984;5.928;2023-06-14T07:47:45;2.22;;;1.27;;
39022;SDS011;25908;51.984;5.928;2023-06-14T07:50:11;1.60;;;1.00;;
39022;SDS011;25908;51.984;5.928;2023-06-14T07:52:38;2.30;;;1.20;;
39022;SDS011;25908;51.984;5.928;2023-06-14T07:55:04;1.67;;;1.08;;
39022;SDS011;25908;51.984;5.928;2023-06-14T07:57:30;4.82;;;1.30;;
39022;SDS011;25908;51.984;5.928;2023-06-14T07:59:56;2.40;;;1.15;;
39022;SDS011;25908;51.984;5.928;2023-06-14T08:02:21;3.80;;;1.02;;
39022;SDS011;25908;51.984;5.928;2023-06-14T08:04:47;1.63;;;1.00;;
39022;SDS011;25908;51.984;5.928;2023-06-14T08:07:13;1.73;;;1.20;;
39022;SDS011;25908;51.984;5.928;2023-06-14T08:09:39;1.90;;;0.85;;
39022;SDS011;25908;51.984;5.928;2023-06-14T08:12:05;2.13;;;0.90;;
39022;SDS011;25908;51.984;5.928;2023-06-14T08:14:38;1.60;;;1.00;;
39022;SDS011;25908;51.984;5.928;2023-06-14T08:17:04;1.42;;;1.20;;
39022;SDS011;25908;51.984;5.928;2023-06-14T08:19:30;1.90;;;1.30;;
39022;SDS011;25908;51.984;5.928;2023-06-14T08:21:56;2.25;;;1.40;;
39022;SDS011;25908;51.984;5.928;2023-06-14T08:24:22;5.75;;;1.17;;
39022;SDS011;25908;51.984;5.928;2023-06-14T08:26:52;3.35;;;1.50;;
39022;SDS011;25908;51.984;5.928;2023-06-14T08:29:18;3.47;;;1.33;;
39022;SDS011;25908;51.984;5.928;2023-06-14T08:31:44;3.55;;;1.42;;
39022;SDS011;25908;51.984;5.928;2023-06-14T08:34:09;1.58;;;1.02;;
39022;SDS011;25908;51.984;5.928;2023-06-14T08:36:35;2.50;;;1.15;;
39022;SDS011;25908;51.984;5.928;2023-06-14T08:39:01;1.98;;;1.30;;
39022;SDS011;25908;51.984;5.928;2023-06-14T08:41:27;2.83;;;1.52;;
39022;SDS011;25908;51.984;5.928;2023-06-14T08:43:54;2.25;;;1.30;;
39022;SDS011;25908;51.984;5.928;2023-06-14T08:46:20;2.90;;;1.52;;
39022;SDS011;25908;51.984;5.928;2023-06-14T08:48:51;2.90;;;1.27;;
39022;SDS011;25908;51.984;5.928;2023-06-14T08:51:20;3.50;;;1.40;;
39022;SDS011;25908;51.984;5.928;2023-06-14T08:56:17;3.90;;;1.10;;
39022;SDS011;25908;51.984;5.928;2023-06-14T08:58:43;3.72;;;1.38;;
39022;SDS011;25908;51.984;5.928;2023-06-14T09:01:10;4.40;;;1.42;;
39022;SDS011;25908;51.984;5.928;2023-06-14T09:03:39;1.90;;;1.10;;
39022;SDS011;25908;51.984;5.928;2023-06-14T09:06:06;2.03;;;1.35;;
39022;SDS011;25908;51.984;5.928;2023-06-14T09:08:34;3.55;;;1.33;;
39022;SDS011;25908;51.984;5.928;2023-06-14T09:11:01;2.30;;;0.98;;
39022;SDS011;25908;51.984;5.928;2023-06-14T09:13:27;2.65;;;1.48;;
39022;SDS011;25908;51.984;5.928;2023-06-14T09:15:52;2.42;;;1.08;;
39022;SDS011;25908;51.984;5.928;2023-06-14T09:18:18;2.28;;;1.48;;
39022;SDS011;25908;51.984;5.928;2023-06-14T09:20:47;1.60;;;0.80;;
39022;SDS011;25908;51.984;5.928;2023-06-14T09:23:13;1.75;;;1.00;;
39022;SDS011;25908;51.984;5.928;2023-06-14T09:25:45;2.85;;;1.15;;
39022;SDS011;25908;51.984;5.928;2023-06-14T09:28:11;3.33;;;1.35;;
39022;SDS011;25908;51.984;5.928;2023-06-14T09:30:37;2.67;;;1.20;;
39022;SDS011;25908;51.984;5.928;2023-06-14T09:33:03;4.70;;;1.25;;
39022;SDS011;25908;51.984;5.928;2023-06-14T09:35:30;2.60;;;1.08;;
39022;SDS011;25908;51.984;5.928;2023-06-14T09:37:56;2.25;;;1.10;;
39022;SDS011;25908;51.984;5.928;2023-06-14T09:40:22;1.73;;;0.80;;
39022;SDS011;25908;51.984;5.928;2023-06-14T09:42:48;1.95;;;1.10;;
39022;SDS011;25908;51.984;5.928;2023-06-14T09:45:14;1.42;;;1.00;;
39022;SDS011;25908;51.984;5.928;2023-06-14T09:47:44;2.65;;;1.20;;
39022;SDS011;25908;51.984;5.928;2023-06-14T09:50:11;2.20;;;1.17;;
39022;SDS011;25908;51.984;5.928;2023-06-14T09:52:36;5.15;;;1.38;;
39022;SDS011;25908;51.984;5.928;2023-06-14T09:55:02;2.72;;;1.20;;
39022;SDS011;25908;51.984;5.928;2023-06-14T09:57:37;1.85;;;1.00;;
39022;SDS011;25908;51.984;5.928;2023-06-14T10:00:06;1.30;;;1.00;;
39022;SDS011;25908;51.984;5.928;2023-06-14T10:02:36;1.27;;;0.80;;
39022;SDS011;25908;51.984;5.928;2023-06-14T10:05:08;2.08;;;1.05;;
39022;SDS011;25908;51.984;5.928;2023-06-14T10:07:40;1.30;;;0.80;;
39022;SDS011;25908;51.984;5.928;2023-06-14T10:10:06;3.38;;;1.20;;
39022;SDS011;25908;51.984;5.928;2023-06-14T10:12:32;2.10;;;0.95;;
39022;SDS011;25908;51.984;5.928;2023-06-14T10:14:58;4.25;;;1.20;;
39022;SDS011;25908;51.984;5.928;2023-06-14T10:17:38;1.48;;;1.00;;
39022;SDS011;25908;51.984;5.928;2023-06-14T10:23:22;1.95;;;1.00;;
39022;SDS011;25908;51.984;5.928;2023-06-14T10:25:58;1.90;;;0.90;;
39022;SDS011;25908;51.984;5.928;2023-06-14T10:28:25;1.05;;;0.75;;
39022;SDS011;25908;51.984;5.928;2023-06-14T10:31:24;2.72;;;1.05;;
39022;SDS011;25908;51.984;5.928;2023-06-14T10:33:50;1.90;;;0.98;;
39022;SDS011;25908;51.984;5.928;2023-06-14T10:38:51;1.15;;;0.88;;
39022;SDS011;25908;51.984;5.928;2023-06-14T10:41:39;1.83;;;1.00;;
39022;SDS011;25908;51.984;5.928;2023-06-14T10:46:46;2.10;;;1.10;;
39022;SDS011;25908;51.984;5.928;2023-06-14T10:49:16;3.10;;;0.90;;
39022;SDS011;25908;51.984;5.928;2023-06-14T10:51:45;2.65;;;0.98;;
39022;SDS011;25908;51.984;5.928;2023-06-14T10:56:48;4.10;;;1.25;;
39022;SDS011;25908;51.984;5.928;2023-06-14T10:59:15;1.08;;;0.70;;
39022;SDS011;25908;51.984;5.928;2023-06-14T11:01:47;2.97;;;1.05;;
39022;SDS011;25908;51.984;5.928;2023-06-14T11:04:34;2.35;;;1.00;;
39022;SDS011;25908;51.984;5.928;2023-06-14T11:07:22;3.45;;;1.10;;
39022;SDS011;25908;51.984;5.928;2023-06-14T11:13:04;1.35;;;1.13;;
39022;SDS011;25908;51.984;5.928;2023-06-14T11:15:30;1.83;;;0.95;;
39022;SDS011;25908;51.984;5.928;2023-06-14T11:17:57;2.05;;;1.05;;
39022;SDS011;25908;51.984;5.928;2023-06-14T11:20:26;2.90;;;0.93;;
39022;SDS011;25908;51.984;5.928;2023-06-14T11:22:52;2.00;;;1.25;;
39022;SDS011;25908;51.984;5.928;2023-06-14T11:25:19;2.45;;;1.30;;
39022;SDS011;25908;51.984;5.928;2023-06-14T11:27:45;1.77;;;1.08;;
39022;SDS011;25908;51.984;5.928;2023-06-14T11:30:11;2.65;;;1.00;;
39022;SDS011;25908;51.984;5.928;2023-06-14T11:32:38;1.50;;;1.08;;
39022;SDS011;25908;51.984;5.928;2023-06-14T11:35:03;1.40;;;0.88;;
39022;SDS011;25908;51.984;5.928;2023-06-14T11:37:30;1.52;;;1.00;;
39022;SDS011;25908;51.984;5.928;2023-06-14T11:39:59;2.60;;;1.35;;
39022;SDS011;25908;51.984;5.928;2023-06-14T11:42:28;3.08;;;1.23;;
39022;SDS011;25908;51.984;5.928;2023-06-14T11:44:55;2.13;;;1.17;;
39022;SDS011;25908;51.984;5.928;2023-06-14T11:47:21;1.83;;;1.00;;
39022;SDS011;25908;51.984;5.928;2023-06-14T11:49:47;2.92;;;1.00;;
39022;SDS011;25908;51.984;5.928;2023-06-14T11:52:13;1.45;;;1.00;;
39022;SDS011;25908;51.984;5.928;2023-06-14T11:54:39;1.73;;;1.02;;
39022;SDS011;25908;51.984;5.928;2023-06-14T11:57:06;3.25;;;1.27;;
39022;SDS011;25908;51.984;5.928;2023-06-14T11:59:32;2.10;;;0.98;;
39022;SDS011;25908;51.984;5.928;2023-06-14T12:02:08;4.05;;;1.50;;
39022;SDS011;25908;51.984;5.928;2023-06-14T12:04:35;2.53;;;1.15;;
39022;SDS011;25908;51.984;5.928;2023-06-14T12:09:40;1.73;;;0.90;;
39022;SDS011;25908;51.984;5.928;2023-06-14T12:12:09;2.13;;;0.80;;
39022;SDS011;25908;51.984;5.928;2023-06-14T12:14:35;1.77;;;1.00;;
39022;SDS011;25908;51.984;5.928;2023-06-14T12:17:05;2.97;;;1.05;;
39022;SDS011;25908;51.984;5.928;2023-06-14T12:19:41;1.40;;;0.90;;
39022;SDS011;25908;51.984;5.928;2023-06-14T12:22:10;3.33;;;1.02;;
39022;SDS011;25908;51.984;5.928;2023-06-14T12:24:42;1.88;;;0.85;;
39022;SDS011;25908;51.984;5.928;2023-06-14T12:27:08;2.30;;;1.10;;
39022;SDS011;25908;51.984;5.928;2023-06-14T12:29:36;1.70;;;1.08;;
39022;SDS011;25908;51.984;5.928;2023-06-14T12:32:02;1.98;;;0.98;;
39022;SDS011;25908;51.984;5.928;2023-06-14T12:34:28;1.27;;;0.88;;
39022;SDS011;25908;51.984;5.928;2023-06-14T12:36:53;2.03;;;1.30;;
39022;SDS011;25908;51.984;5.928;2023-06-14T12:39:20;1.90;;;0.77;;
39022;SDS011;25908;51.984;5.928;2023-06-14T12:41:46;2.65;;;0.80;;
39022;SDS011;25908;51.984;5.928;2023-06-14T12:44:12;2.15;;;1.08;;
39022;SDS011;25908;51.984;5.928;2023-06-14T12:46:38;2.05;;;1.10;;
39022;SDS011;25908;51.984;5.928;2023-06-14T12:49:08;1.08;;;0.82;;
39022;SDS011;25908;51.984;5.928;2023-06-14T12:51:34;1.20;;;0.80;;
39022;SDS011;25908;51.984;5.928;2023-06-14T12:54:00;1.70;;;1.00;;
39022;SDS011;25908;51.984;5.928;2023-06-14T12:56:25;3.08;;;1.00;;
39022;SDS011;25908;51.984;5.928;2023-06-14T12:58:51;2.28;;;0.95;;
39022;SDS011;25908;51.984;5.928;2023-06-14T13:01:17;1.67;;;1.02;;
39022;SDS011;25908;51.984;5.928;2023-06-14T13:03:43;1.55;;;0.82;;
39022;SDS011;25908;51.984;5.928;2023-06-14T13:06:09;1.25;;;0.82;;
39022;SDS011;25908;51.984;5.928;2023-06-14T13:08:34;1.13;;;0.98;;
39022;SDS011;25908;51.984;5.928;2023-06-14T13:11:00;2.10;;;0.85;;
39022;SDS011;25908;51.984;5.928;2023-06-14T13:13:26;1.38;;;0.80;;
39022;SDS011;25908;51.984;5.928;2023-06-14T13:15:51;1.38;;;0.75;;
39022;SDS011;25908;51.984;5.928;2023-06-14T13:18:17;1.85;;;0.80;;
39022;SDS011;25908;51.984;5.928;2023-06-14T13:20:42;4.38;;;1.00;;
39022;SDS011;25908;51.984;5.928;2023-06-14T13:23:08;2.20;;;0.90;;
39022;SDS011;25908;51.984;5.928;2023-06-14T13:25:35;4.53;;;0.90;;
39022;SDS011;25908;51.984;5.928;2023-06-14T13:28:01;2.15;;;0.77;;
39022;SDS011;25908;51.984;5.928;2023-06-14T13:30:27;1.23;;;0.80;;
39022;SDS011;25908;51.984;5.928;2023-06-14T13:32:52;3.03;;;0.90;;
39022;SDS011;25908;51.984;5.928;2023-06-14T13:35:18;2.60;;;1.00;;
39022;SDS011;25908;51.984;5.928;2023-06-14T13:37:44;1.83;;;1.02;;
39022;SDS011;25908;51.984;5.928;2023-06-14T13:40:10;2.08;;;1.02;;
39022;SDS011;25908;51.984;5.928;2023-06-14T13:42:36;1.45;;;0.60;;
39022;SDS011;25908;51.984;5.928;2023-06-14T13:45:02;1.27;;;0.60;;
39022;SDS011;25908;51.984;5.928;2023-06-14T13:47:29;3.08;;;1.02;;
39022;SDS011;25908;51.984;5.928;2023-06-14T13:49:55;1.30;;;0.77;;
39022;SDS011;25908;51.984;5.928;2023-06-14T13:52:20;2.75;;;0.88;;
39022;SDS011;25908;51.984;5.928;2023-06-14T13:54:46;2.70;;;0.77;;
39022;SDS011;25908;51.984;5.928;2023-06-14T13:57:12;1.98;;;0.65;;
39022;SDS011;25908;51.984;5.928;2023-06-14T13:59:38;1.70;;;0.70;;
39022;SDS011;25908;51.984;5.928;2023-06-14T14:02:04;2.10;;;0.60;;
39022;SDS011;25908;51.984;5.928;2023-06-14T14:04:30;2.55;;;0.90;;
39022;SDS011;25908;51.984;5.928;2023-06-14T14:06:56;2.92;;;0.90;;
39022;SDS011;25908;51.984;5.928;2023-06-14T14:09:22;1.48;;;0.75;;
39022;SDS011;25908;51.984;5.928;2023-06-14T14:11:47;6.80;;;1.00;;
39022;SDS011;25908;51.984;5.928;2023-06-14T14:14:13;2.67;;;0.70;;
39022;SDS011;25908;51.984;5.928;2023-06-14T14:16:39;1.33;;;0.80;;
39022;SDS011;25908;51.984;5.928;2023-06-14T14:19:05;1.67;;;0.73;;
39022;SDS011;25908;51.984;5.928;2023-06-14T14:21:31;1.10;;;0.80;;
39022;SDS011;25908;51.984;5.928;2023-06-14T14:23:57;2.08;;;0.80;;
39022;SDS011;25908;51.984;5.928;2023-06-14T14:26:23;4.32;;;1.10;;
39022;SDS011;25908;51.984;5.928;2023-06-14T14:28:49;3.63;;;1.00;;
39022;SDS011;25908;51.984;5.928;2023-06-14T14:31:15;1.98;;;0.90;;
39022;SDS011;25908;51.984;5.928;2023-06-14T14:33:41;1.27;;;0.98;;
39022;SDS011;25908;51.984;5.928;2023-06-14T14:36:07;2.22;;;0.80;;
39022;SDS011;25908;51.984;5.928;2023-06-14T14:38:33;1.63;;;0.70;;
39022;SDS011;25908;51.984;5.928;2023-06-14T14:40:58;3.38;;;0.70;;
39022;SDS011;25908;51.984;5.928;2023-06-14T14:43:24;1.67;;;0.80;;
39022;SDS011;25908;51.984;5.928;2023-06-14T14:45:50;1.00;;;0.63;;
39022;SDS011;25908;51.984;5.928;2023-06-14T14:48:15;3.05;;;0.60;;
39022;SDS011;25908;51.984;5.928;2023-06-14T14:50:41;1.52;;;0.82;;
39022;SDS011;25908;51.984;5.928;2023-06-14T14:53:06;3.28;;;1.30;;
39022;SDS011;25908;51.984;5.928;2023-06-14T14:55:32;1.90;;;0.82;;
39022;SDS011;25908;51.984;5.928;2023-06-14T14:58:01;1.80;;;0.82;;
39022;SDS011;25908;51.984;5.928;2023-06-14T15:00:27;1.75;;;0.90;;
39022;SDS011;25908;51.984;5.928;2023-06-14T15:02:53;1.48;;;0.80;;
39022;SDS011;25908;51.984;5.928;2023-06-14T15:05:19;1.70;;;0.85;;